Time;durP1;ratioP1;P1;durP2;ratioP2;P2;SDS_P1;SDS_P2;PMS_P1;PMS_P2;Temp;Humidity;BMP_temperature;BMP_pressure;BME280_temperature;BME280_humidity;BME280_pressure;Samples;Min_cycle;Max_cycle;Signal;HPM_P1;HPM_P2
2022/04/15 00:07:42;;;;;;;17.75;9.13;;;11.60;99.90;;;;;;20832269;28;20033;-75
2022/04/15 00:17:42;;;;;;;13.03;7.50;;;12.00;99.90;;;;;;20831803;28;20040;-74
2022/04/15 00:27:43;;;;;;;14.17;7.87;;;12.20;99.90;;;;;;20830985;28;20041;-75
2022/04/15 00:37:46;;;;;;;13.20;8.27;;;12.20;99.90;;;;;;20829956;28;20057;-75
2022/04/15 00:47:58;;;;;;;18.23;8.48;;;12.20;99.90;;;;;;20811288;28;20474;-75
2022/04/15 00:58:04;;;;;;;18.05;8.18;;;12.50;99.90;;;;;;20811153;28;20041;-75
2022/04/15 01:08:08;;;;;;;13.48;7.38;;;12.50;99.90;;;;;;20827672;28;20043;-75
2022/04/15 01:18:09;;;;;;;10.13;6.13;;;12.60;99.90;;;;;;20827134;28;20108;-75
2022/04/15 01:28:10;;;;;;;13.97;7.30;;;12.60;99.90;;;;;;20808830;28;20465;-75
2022/04/15 01:38:14;;;;;;;12.17;6.80;;;12.70;99.90;;;;;;20808123;28;20029;-75
2022/04/15 01:48:15;;;;;;;23.23;10.48;;;12.80;99.90;;;;;;20825221;28;20226;-75
2022/04/15 01:58:17;;;;;;;20.43;8.00;;;12.80;99.90;;;;;;20824813;28;20445;-75
2022/04/15 02:08:18;;;;;;;11.38;8.00;;;12.50;99.90;;;;;;20968735;22;20057;-75
2022/04/15 02:18:18;;;;;;;11.60;6.67;;;12.50;99.90;;;;;;20972897;28;20037;-76
2022/04/15 02:28:19;;;;;;;12.57;8.27;;;12.40;99.90;;;;;;20989460;28;20082;-77
2022/04/15 02:38:20;;;;;;;14.80;7.80;;;12.10;99.90;;;;;;20989433;28;20024;-77
2022/04/15 02:48:21;;;;;;;11.83;6.93;;;12.00;99.90;;;;;;20989627;28;20027;-77
2022/04/15 02:58:21;;;;;;;13.10;7.53;;;11.90;99.90;;;;;;20994211;28;20114;-75
2022/04/15 03:08:22;;;;;;;14.27;8.00;;;11.70;99.90;;;;;;20998871;28;20052;-75
2022/04/15 03:18:23;;;;;;;11.57;7.97;;;11.50;99.90;;;;;;21008877;28;20036;-77
2022/04/15 03:28:24;;;;;;;13.53;7.53;;;11.50;99.90;;;;;;21007547;28;20028;-77
2022/04/15 03:38:25;;;;;;;14.43;9.20;;;11.30;99.90;;;;;;21005572;28;20035;-77
2022/04/15 03:48:26;;;;;;;12.30;7.93;;;10.90;99.90;;;;;;21004798;28;20031;-77
2022/04/15 03:58:27;;;;;;;14.70;8.00;;;10.90;99.90;;;;;;21001412;28;20047;-77
2022/04/15 04:08:28;;;;;;;18.07;10.13;;;10.60;99.90;;;;;;20980217;28;20317;-76
2022/04/15 04:18:29;;;;;;;18.80;10.40;;;10.80;99.90;;;;;;20997359;28;20039;-76
2022/04/15 04:28:30;;;;;;;19.63;12.10;;;10.40;99.90;;;;;;20995901;28;20056;-76
2022/04/15 04:38:31;;;;;;;15.63;10.07;;;10.70;99.90;;;;;;20995255;28;20403;-76
2022/04/15 04:48:32;;;;;;;15.87;10.20;;;10.90;99.90;;;;;;20985281;28;20039;-75
2022/04/15 04:58:33;;;;;;;16.83;10.83;;;11.10;99.90;;;;;;20993754;28;20029;-76
2022/04/15 05:08:34;;;;;;;15.53;10.73;;;11.10;99.90;;;;;;20992696;28;20039;-76
2022/04/15 05:18:34;;;;;;;13.43;9.80;;;11.00;99.90;;;;;;20993513;28;20052;-76
2022/04/15 05:28:36;;;;;;;20.20;11.93;;;11.30;99.90;;;;;;20991793;28;20029;-76
2022/04/15 05:38:36;;;;;;;14.23;9.23;;;11.30;99.90;;;;;;20973480;28;20059;-75
2022/04/15 05:48:37;;;;;;;15.83;8.90;;;11.60;99.90;;;;;;20973498;28;20433;-76
2022/04/15 05:58:40;;;;;;;18.63;10.83;;;11.80;99.90;;;;;;20972822;28;20037;-76
2022/04/15 06:08:41;;;;;;;14.15;9.27;;;11.90;99.90;;;;;;20902051;28;20056;-76
2022/04/15 06:18:42;;;;;;;14.67;9.43;;;12.20;99.90;;;;;;20860468;28;20036;-75
2022/04/15 06:28:42;;;;;;;20.77;11.50;;;12.50;99.90;;;;;;20831558;28;20040;-76
2022/04/15 06:38:43;;;;;;;19.63;10.47;;;12.80;99.90;;;;;;20838692;28;20029;-76
2022/04/15 06:48:44;;;;;;;15.87;8.23;;;13.20;99.90;;;;;;20838946;28;20064;-76
2022/04/15 06:58:45;;;;;;;12.87;8.27;;;14.20;99.90;;;;;;20879781;28;20025;-76
2022/04/15 07:08:46;;;;;;;17.67;9.73;;;14.70;99.90;;;;;;20894991;28;20041;-76
2022/04/15 07:18:47;;;;;;;17.50;9.43;;;15.50;99.90;;;;;;20884286;28;20380;-78
2022/04/15 07:28:47;;;;;;;13.63;7.97;;;15.70;99.90;;;;;;20843376;28;20029;-76
2022/04/15 07:38:48;;;;;;;14.77;7.80;;;16.00;99.90;;;;;;20835226;28;20057;-75
2022/04/15 07:48:49;;;;;;;13.00;6.73;;;16.70;99.90;;;;;;20834317;28;20082;-76
2022/04/15 07:58:50;;;;;;;20.70;6.07;;;17.50;99.90;;;;;;20833932;28;20089;-76
2022/04/15 08:08:55;;;;;;;10.70;6.03;;;18.40;99.90;;;;;;20937424;22;20070;-75
2022/04/15 08:18:56;;;;;;;11.10;4.40;;;18.40;99.90;;;;;;20919509;28;20032;-74
2022/04/15 08:28:57;;;;;;;;;;;18.90;99.90;;;;;;20885894;28;20046;-74
2022/04/15 08:38:58;;;;;;;5.97;3.17;;;20.20;99.90;;;;;;20842249;28;19999;-74
2022/04/15 08:49:01;;;;;;;5.88;2.83;;;20.60;99.90;;;;;;20829218;28;20798;-73
2022/04/15 08:59:02;;;;;;;7.28;2.55;;;20.70;99.90;;;;;;20840024;28;20036;-74
2022/04/15 09:09:08;;;;;;;8.90;3.03;;;21.40;99.90;;;;;;20871642;28;20426;-74
2022/04/15 09:19:10;;;;;;;4.78;2.42;;;22.10;99.90;;;;;;20853857;28;20112;-74
2022/04/15 09:29:12;;;;;;;7.68;2.65;;;21.80;99.90;;;;;;20825906;28;20084;-75
2022/04/15 09:39:17;;;;;;;4.93;2.50;;;22.60;99.90;;;;;;20908586;28;20478;-75
2022/04/15 09:49:19;;;;;;;5.75;2.55;;;23.20;99.90;;;;;;20971138;28;20137;-75
2022/04/15 09:59:28;;;;;;;7.83;2.23;;;23.50;99.90;;;;;;20951755;28;20048;-75
2022/04/15 10:09:29;;;;;;;3.97;2.17;;;23.20;99.90;;;;;;20824691;28;20041;-77
2022/04/15 10:19:32;;;;;;;4.97;1.77;;;23.70;99.90;;;;;;20860419;28;20040;-76
2022/04/15 10:29:33;;;;;;;4.43;1.77;;;24.00;99.90;;;;;;20862807;28;20042;-76
2022/04/15 10:39:48;;;;;;;10.80;2.60;;;25.10;99.90;;;;;;20873724;28;20035;-75
2022/04/15 10:49:55;;;;;;;6.47;2.60;;;22.70;99.90;;;;;;20888695;28;20033;-73
2022/04/15 11:10:43;;;;;;;5.78;2.05;;;23.00;99.90;;;;;;20910878;28;20449;-75
2022/04/15 11:20:45;;;;;;;5.30;1.85;;;23.50;99.90;;;;;;20887390;28;20131;-75
2022/04/15 11:30:46;;;;;;;5.38;2.10;;;23.50;99.90;;;;;;20946621;28;20372;-74
2022/04/15 11:40:47;;;;;;;8.82;2.63;;;21.70;99.90;;;;;;20897232;28;20033;-74
2022/04/15 11:50:51;;;;;;;3.25;1.98;;;22.10;99.90;;;;;;20896408;28;20040;-73
2022/04/15 12:00:53;;;;;;;4.82;1.90;;;22.60;99.90;;;;;;20895451;28;20044;-73
2022/04/15 12:10:54;;;;;;;4.57;2.20;;;24.30;99.90;;;;;;20895012;28;20064;-73
2022/04/15 12:20:56;;;;;;;5.88;1.63;;;23.70;99.90;;;;;;20894156;28;20060;-73
2022/04/15 12:30:57;;;;;;;8.38;1.98;;;25.30;99.90;;;;;;20853555;28;20124;-74
2022/04/15 12:41:10;;;;;;;3.77;1.63;;;23.90;99.90;;;;;;20858429;28;20124;-73
2022/04/15 12:51:10;;;;;;;7.45;2.45;;;23.20;99.90;;;;;;20904098;28;20491;-73
2022/04/15 13:01:11;;;;;;;6.53;1.50;;;22.30;99.90;;;;;;20909712;28;20162;-73
2022/04/15 13:11:12;;;;;;;6.10;2.13;;;21.90;99.90;;;;;;20892324;28;20393;-73
2022/04/15 13:21:13;;;;;;;4.77;1.80;;;22.10;99.90;;;;;;20909592;28;20086;-73
2022/04/15 13:31:14;;;;;;;13.17;1.90;;;22.20;99.90;;;;;;20908697;28;20418;-73
2022/04/15 13:41:15;;;;;;;7.32;1.67;;;21.80;99.90;;;;;;20908077;28;20033;-74
2022/04/15 13:51:16;;;;;;;5.27;1.70;;;23.60;99.90;;;;;;20906956;28;20395;-73
2022/04/15 14:01:27;;;;;;;10.17;2.37;;;24.00;99.90;;;;;;20907852;28;20419;-73
2022/04/15 14:11:28;;;;;;;7.87;1.87;;;23.10;99.90;;;;;;20890592;28;20326;-75
2022/04/15 14:21:29;;;;;;;;;;;22.80;99.90;;;;;;20919445;28;20029;-76
2022/04/15 14:31:30;;;;;;;3.75;1.40;;;21.20;99.90;;;;;;20890782;28;19956;-77
2022/04/15 14:41:34;;;;;;;5.43;1.95;;;21.40;99.90;;;;;;20823964;28;20503;-75
2022/04/15 14:51:35;;;;;;;3.67;1.50;;;20.90;99.90;;;;;;20886593;28;20055;-75
2022/04/15 15:01:35;;;;;;;3.50;1.60;;;20.80;99.90;;;;;;20890426;28;20079;-75
2022/04/15 15:11:36;;;;;;;4.40;2.03;;;21.10;99.90;;;;;;20918993;28;20060;-75
2022/04/15 15:21:38;;;;;;;10.37;2.17;;;21.20;99.90;;;;;;20918807;28;20033;-73
2022/04/15 15:31:38;;;;;;;4.78;2.45;;;20.40;99.90;;;;;;20918552;28;20047;-73
2022/04/15 15:41:43;;;;;;;7.33;3.50;;;19.90;99.90;;;;;;20899894;28;20037;-73
2022/04/15 15:51:43;;;;;;;12.32;2.67;;;19.30;99.90;;;;;;20882806;28;20048;-73
2022/04/15 16:01:44;;;;;;;6.87;2.43;;;19.30;99.90;;;;;;20901971;28;20041;-75
2022/04/15 16:11:45;;;;;;;5.47;1.90;;;19.40;99.90;;;;;;20925302;28;20103;-73
2022/04/15 16:21:46;;;;;;;3.10;2.10;;;19.50;99.90;;;;;;20916148;28;20129;-74
2022/04/15 16:31:47;;;;;;;5.45;1.90;;;19.70;99.90;;;;;;20905472;28;20042;-73
2022/04/15 16:41:49;;;;;;;24.13;4.20;;;19.90;99.90;;;;;;20884270;28;20036;-73
2022/04/15 16:51:49;;;;;;;170.20;22.37;;;19.90;99.90;;;;;;20850571;28;20051;-74
2022/04/15 17:01:51;;;;;;;14.60;3.03;;;20.30;99.90;;;;;;20885484;28;20288;-74
2022/04/15 17:11:52;;;;;;;19.38;3.80;;;20.40;99.90;;;;;;20876008;28;20041;-74
2022/04/15 17:21:52;;;;;;;3.33;2.00;;;20.40;99.90;;;;;;20856183;28;20035;-75
2022/04/15 17:31:53;;;;;;;4.23;2.23;;;20.60;99.90;;;;;;20827304;28;20143;-74
2022/04/15 17:41:54;;;;;;;7.30;2.87;;;20.40;99.90;;;;;;20883470;28;20071;-74
2022/04/15 17:51:55;;;;;;;5.60;2.20;;;20.20;99.90;;;;;;20918267;28;20053;-76
2022/04/15 18:01:56;;;;;;;5.63;2.10;;;19.80;99.90;;;;;;20909751;28;20271;-74
2022/04/15 18:11:57;;;;;;;11.83;2.70;;;19.60;99.90;;;;;;20867389;28;20037;-74
2022/04/15 18:21:58;;;;;;;3.97;2.43;;;19.30;99.90;;;;;;20846341;28;20276;-75
2022/04/15 18:31:59;;;;;;;6.90;3.00;;;18.80;99.90;;;;;;20881585;28;20060;-76
2022/04/15 18:42:00;;;;;;;4.60;2.00;;;18.20;99.90;;;;;;20916411;28;20025;-75
2022/04/15 19:02:20;;;;;;;3.70;2.00;;;18.00;99.90;;;;;;20870640;28;20095;-74
2022/04/15 19:12:21;;;;;;;4.43;1.93;;;17.90;99.90;;;;;;20895547;28;20491;-73
2022/04/15 19:22:22;;;;;;;6.03;2.77;;;17.50;99.90;;;;;;20921108;28;20262;-74
2022/04/15 19:32:23;;;;;;;4.17;2.50;;;17.10;99.90;;;;;;20866852;28;20087;-74
2022/04/15 19:42:24;;;;;;;5.73;2.60;;;16.90;99.90;;;;;;20856235;28;20033;-74
2022/04/15 19:52:25;;;;;;;4.33;2.47;;;16.60;99.90;;;;;;20856340;28;20033;-76
2022/04/15 20:02:26;;;;;;;6.93;2.80;;;16.20;99.90;;;;;;20882332;28;20025;-75
2022/04/15 20:12:27;;;;;;;4.83;3.17;;;15.70;99.90;;;;;;20878435;28;20047;-75
2022/04/15 20:22:27;;;;;;;5.90;3.00;;;15.60;99.90;;;;;;20875898;28;20217;-74
2022/04/15 20:32:30;;;;;;;7.87;3.13;;;15.30;99.90;;;;;;20858112;28;20512;-74
2022/04/15 20:42:31;;;;;;;5.32;2.97;;;15.20;99.90;;;;;;20833532;28;20036;-74
2022/04/15 20:52:32;;;;;;;3.83;2.45;;;15.10;99.90;;;;;;20828835;28;20044;-75
2022/04/15 21:02:33;;;;;;;5.80;2.57;;;15.00;99.90;;;;;;20861809;28;20033;-74
2022/04/15 21:12:35;;;;;;;3.50;2.40;;;14.80;99.90;;;;;;20903700;28;20824;-74
2022/04/15 21:22:36;;;;;;;4.03;2.70;;;14.70;99.90;;;;;;20932385;28;20043;-75
2022/04/15 21:32:37;;;;;;;3.07;2.33;;;14.70;99.90;;;;;;20879107;28;20358;-76
2022/04/15 21:42:38;;;;;;;6.07;2.47;;;14.60;99.90;;;;;;20864311;28;20029;-77
2022/04/15 21:52:40;;;;;;;2.90;2.10;;;14.40;99.90;;;;;;20895084;28;20068;-78
2022/04/15 22:02:41;;;;;;;4.03;2.20;;;14.20;99.90;;;;;;20962593;28;20127;-76
2022/04/15 22:12:42;;;;;;;4.03;2.23;;;14.10;99.90;;;;;;20897186;28;20025;-77
2022/04/15 22:22:44;;;;;;;7.17;2.13;;;13.90;99.90;;;;;;20934128;22;20477;-73
2022/04/15 22:32:45;;;;;;;3.03;2.25;;;13.70;99.90;;;;;;20955536;28;20053;-72
2022/04/15 22:42:46;;;;;;;4.17;2.00;;;13.30;99.90;;;;;;20947560;28;20029;-73
2022/04/15 22:52:46;;;;;;;3.63;2.00;;;13.30;99.90;;;;;;20965491;28;20055;-73
2022/04/15 23:02:47;;;;;;;2.17;1.50;;;13.40;99.90;;;;;;21008693;28;20055;-74
2022/04/15 23:12:48;;;;;;;6.83;1.90;;;13.30;99.90;;;;;;21008117;28;20402;-74
2022/04/15 23:22:49;;;;;;;4.33;1.20;;;13.20;99.90;;;;;;21004199;28;20560;-74
2022/04/15 23:32:53;;;;;;;5.10;1.30;;;13.20;99.90;;;;;;21003760;28;20033;-73
2022/04/15 23:42:54;;;;;;;4.80;1.40;;;13.20;99.90;;;;;;21004898;28;20457;-74
2022/04/15 23:52:55;;;;;;;2.47;1.30;;;13.20;99.90;;;;;;21002220;28;20063;-74
